sensor_id;sensor_type;location;lat;lon;timestamp;pressure;altitude;pressure_sealevel;temperature;humidity
61113;BME280;47184;57.998;56.184;2023-02-13T00:01:20;100400.56;;;-6.80;67.77
61113;BME280;47184;57.998;56.184;2023-02-13T00:03:46;100391.94;;;-6.78;68.29
61113;BME280;47184;57.998;56.184;2023-02-13T00:06:13;100385.38;;;-6.57;67.89
61113;BME280;47184;57.998;56.184;2023-02-13T00:08:39;100384.22;;;-6.46;67.34
61113;BME280;47184;57.998;56.184;2023-02-13T00:11:05;100395.72;;;-6.60;67.61
61113;BME280;47184;57.998;56.184;2023-02-13T00:13:32;100382.69;;;-6.52;67.58
61113;BME280;47184;57.998;56.184;2023-02-13T00:16:01;100378.25;;;-6.47;66.80
61113;BME280;47184;57.998;56.184;2023-02-13T00:18:32;100347.97;;;-6.67;66.92
61113;BME280;47184;57.998;56.184;2023-02-13T00:21:04;100381.34;;;-6.65;67.16
61113;BME280;47184;57.998;56.184;2023-02-13T00:23:31;100382.13;;;-6.63;67.56
61113;BME280;47184;57.998;56.184;2023-02-13T00:26:00;100378.31;;;-6.50;67.09
61113;BME280;47184;57.998;56.184;2023-02-13T00:28:26;100390.75;;;-6.66;66.83
61113;BME280;47184;57.998;56.184;2023-02-13T00:30:52;100381.63;;;-6.76;66.99
61113;BME280;47184;57.998;56.184;2023-02-13T00:33:19;100377.38;;;-6.77;67.46
61113;BME280;47184;57.998;56.184;2023-02-13T00:35:45;100365.97;;;-6.67;67.03
61113;BME280;47184;57.998;56.184;2023-02-13T00:38:11;100367.25;;;-6.52;67.13
61113;BME280;47184;57.998;56.184;2023-02-13T00:40:37;100372.94;;;-6.41;66.60
61113;BME280;47184;57.998;56.184;2023-02-13T00:43:02;100366.94;;;-6.41;66.15
61113;BME280;47184;57.998;56.184;2023-02-13T00:45:28;100372.00;;;-6.68;66.82
61113;BME280;47184;57.998;56.184;2023-02-13T00:47:54;100362.06;;;-6.51;66.44
61113;BME280;47184;57.998;56.184;2023-02-13T00:50:21;100364.09;;;-6.62;66.28
61113;BME280;47184;57.998;56.184;2023-02-13T00:52:47;100376.56;;;-6.48;66.04
61113;BME280;47184;57.998;56.184;2023-02-13T00:55:13;100368.72;;;-6.73;66.38
61113;BME280;47184;57.998;56.184;2023-02-13T00:57:39;100367.31;;;-6.85;66.60
61113;BME280;47184;57.998;56.184;2023-02-13T01:00:05;100370.53;;;-6.78;66.54
61113;BME280;47184;57.998;56.184;2023-02-13T01:02:31;100367.81;;;-6.72;66.81
61113;BME280;47184;57.998;56.184;2023-02-13T01:05:00;100363.81;;;-6.51;65.81
61113;BME280;47184;57.998;56.184;2023-02-13T01:07:28;100379.75;;;-6.71;65.74
61113;BME280;47184;57.998;56.184;2023-02-13T01:09:54;100371.78;;;-6.60;65.96
61113;BME280;47184;57.998;56.184;2023-02-13T01:12:20;100365.41;;;-6.78;66.07
61113;BME280;47184;57.998;56.184;2023-02-13T01:14:47;100380.41;;;-6.94;66.73
61113;BME280;47184;57.998;56.184;2023-02-13T01:17:13;100376.31;;;-6.70;66.10
61113;BME280;47184;57.998;56.184;2023-02-13T01:19:40;100372.22;;;-6.46;65.40
61113;BME280;47184;57.998;56.184;2023-02-13T01:22:07;100366.22;;;-6.46;65.50
61113;BME280;47184;57.998;56.184;2023-02-13T01:24:34;100360.94;;;-6.40;65.33
61113;BME280;47184;57.998;56.184;2023-02-13T01:27:04;100357.63;;;-6.45;65.24
61113;BME280;47184;57.998;56.184;2023-02-13T01:29:30;100347.69;;;-6.56;65.22
61113;BME280;47184;57.998;56.184;2023-02-13T01:32:02;100374.03;;;-6.50;65.64
61113;BME280;47184;57.998;56.184;2023-02-13T01:34:33;100371.84;;;-6.63;65.54
61113;BME280;47184;57.998;56.184;2023-02-13T01:36:59;100360.19;;;-6.75;65.89
61113;BME280;47184;57.998;56.184;2023-02-13T01:39:25;100345.00;;;-6.83;65.78
61113;BME280;47184;57.998;56.184;2023-02-13T01:41:51;100355.19;;;-6.80;66.23
61113;BME280;47184;57.998;56.184;2023-02-13T01:47:22;100366.97;;;-7.04;66.09
61113;BME280;47184;57.998;56.184;2023-02-13T01:49:54;100334.13;;;-7.24;67.25
61113;BME280;47184;57.998;56.184;2023-02-13T01:52:24;100343.41;;;-7.18;66.89
61113;BME280;47184;57.998;56.184;2023-02-13T01:54:51;100359.78;;;-7.24;67.14
61113;BME280;47184;57.998;56.184;2023-02-13T01:57:20;100344.06;;;-7.10;66.64
61113;BME280;47184;57.998;56.184;2023-02-13T01:59:56;100345.78;;;-7.10;66.86
61113;BME280;47184;57.998;56.184;2023-02-13T02:02:27;100338.19;;;-7.15;66.95
61113;BME280;47184;57.998;56.184;2023-02-13T02:04:58;100349.97;;;-7.40;67.17
61113;BME280;47184;57.998;56.184;2023-02-13T02:07:28;100317.78;;;-7.52;67.41
61113;BME280;47184;57.998;56.184;2023-02-13T02:10:04;100347.59;;;-7.14;67.24
61113;BME280;47184;57.998;56.184;2023-02-13T02:12:40;100342.13;;;-7.02;66.48
61113;BME280;47184;57.998;56.184;2023-02-13T02:15:11;100320.19;;;-7.13;66.09
61113;BME280;47184;57.998;56.184;2023-02-13T02:17:37;100345.22;;;-7.23;66.72
61113;BME280;47184;57.998;56.184;2023-02-13T02:39:36;100284.03;;;-7.37;65.82
61113;BME280;47184;57.998;56.184;2023-02-13T02:42:17;100315.31;;;-6.91;64.67
61113;BME280;47184;57.998;56.184;2023-02-13T02:47:33;100311.13;;;-6.95;65.45
61113;BME280;47184;57.998;56.184;2023-02-13T02:51:02;100294.75;;;-6.91;65.03
61113;BME280;47184;57.998;56.184;2023-02-13T02:56:30;100311.97;;;-6.95;65.49
61113;BME280;47184;57.998;56.184;2023-02-13T02:59:02;100293.09;;;-6.92;64.80
61113;BME280;47184;57.998;56.184;2023-02-13T03:02:07;100285.25;;;-7.17;65.55
61113;BME280;47184;57.998;56.184;2023-02-13T03:04:56;100294.91;;;-6.96;65.27
61113;BME280;47184;57.998;56.184;2023-02-13T03:07:42;100304.66;;;-7.09;65.33
61113;BME280;47184;57.998;56.184;2023-02-13T03:10:13;100290.31;;;-6.85;64.91
61113;BME280;47184;57.998;56.184;2023-02-13T03:13:13;100299.47;;;-7.07;65.41
61113;BME280;47184;57.998;56.184;2023-02-13T03:15:51;100291.16;;;-6.84;64.82
61113;BME280;47184;57.998;56.184;2023-02-13T03:18:56;100294.47;;;-6.81;64.30
61113;BME280;47184;57.998;56.184;2023-02-13T03:21:50;100308.91;;;-7.08;65.14
61113;BME280;47184;57.998;56.184;2023-02-13T03:24:51;100295.94;;;-7.03;64.67
61113;BME280;47184;57.998;56.184;2023-02-13T03:27:46;100315.31;;;-7.22;64.96
61113;BME280;47184;57.998;56.184;2023-02-13T03:31:05;100308.09;;;-7.41;65.91
61113;BME280;47184;57.998;56.184;2023-02-13T03:36:37;100307.56;;;-7.21;65.16
61113;BME280;47184;57.998;56.184;2023-02-13T03:44:52;100292.41;;;-6.99;64.94
61113;BME280;47184;57.998;56.184;2023-02-13T03:47:41;100273.53;;;-6.96;64.28
61113;BME280;47184;57.998;56.184;2023-02-13T03:50:09;100292.59;;;-7.05;64.41
61113;BME280;47184;57.998;56.184;2023-02-13T03:55:15;100289.97;;;-7.02;64.23
61113;BME280;47184;57.998;56.184;2023-02-13T03:58:13;100276.78;;;-6.91;64.14
61113;BME280;47184;57.998;56.184;2023-02-13T04:01:01;100288.38;;;-6.78;63.62
61113;BME280;47184;57.998;56.184;2023-02-13T04:03:48;100287.88;;;-6.89;64.21
61113;BME280;47184;57.998;56.184;2023-02-13T04:06:20;100256.59;;;-7.02;63.83
61113;BME280;47184;57.998;56.184;2023-02-13T04:08:46;100279.78;;;-6.76;63.36
61113;BME280;47184;57.998;56.184;2023-02-13T04:13:59;100274.22;;;-6.91;63.55
61113;BME280;47184;57.998;56.184;2023-02-13T04:16:33;100284.47;;;-6.90;63.71
61113;BME280;47184;57.998;56.184;2023-02-13T04:19:01;100281.38;;;-7.01;64.41
61113;BME280;47184;57.998;56.184;2023-02-13T04:21:32;100286.53;;;-7.03;63.65
61113;BME280;47184;57.998;56.184;2023-02-13T04:23:58;100289.69;;;-6.93;63.43
61113;BME280;47184;57.998;56.184;2023-02-13T04:26:28;100266.47;;;-7.19;63.64
61113;BME280;47184;57.998;56.184;2023-02-13T04:28:56;100268.34;;;-6.95;64.22
61113;BME280;47184;57.998;56.184;2023-02-13T04:31:22;100267.34;;;-6.89;63.91
61113;BME280;47184;57.998;56.184;2023-02-13T04:33:48;100264.41;;;-6.77;63.38
61113;BME280;47184;57.998;56.184;2023-02-13T04:36:14;100271.03;;;-6.98;63.53
61113;BME280;47184;57.998;56.184;2023-02-13T04:38:40;100277.16;;;-7.04;63.87
61113;BME280;47184;57.998;56.184;2023-02-13T04:41:06;100263.75;;;-6.84;63.36
61113;BME280;47184;57.998;56.184;2023-02-13T04:43:32;100277.06;;;-6.71;62.80
61113;BME280;47184;57.998;56.184;2023-02-13T04:45:58;100277.22;;;-6.47;62.37
61113;BME280;47184;57.998;56.184;2023-02-13T04:48:24;100282.72;;;-6.60;62.69
61113;BME280;47184;57.998;56.184;2023-02-13T04:50:50;100262.59;;;-6.45;62.75
61113;BME280;47184;57.998;56.184;2023-02-13T04:53:16;100261.50;;;-6.66;63.07
61113;BME280;47184;57.998;56.184;2023-02-13T04:55:42;100264.28;;;-6.44;62.96
61113;BME280;47184;57.998;56.184;2023-02-13T04:58:08;100268.22;;;-6.33;62.31
61113;BME280;47184;57.998;56.184;2023-02-13T05:00:37;100269.06;;;-6.32;62.16
61113;BME280;47184;57.998;56.184;2023-02-13T05:03:05;100269.69;;;-6.54;62.46
61113;BME280;47184;57.998;56.184;2023-02-13T05:05:31;100260.69;;;-6.39;62.53
61113;BME280;47184;57.998;56.184;2023-02-13T05:07:58;100259.09;;;-6.71;62.76
61113;BME280;47184;57.998;56.184;2023-02-13T05:10:24;100258.88;;;-6.63;62.55
61113;BME280;47184;57.998;56.184;2023-02-13T05:12:50;100263.25;;;-6.67;62.75
61113;BME280;47184;57.998;56.184;2023-02-13T05:15:16;100262.50;;;-6.42;62.09
61113;BME280;47184;57.998;56.184;2023-02-13T05:17:43;100264.66;;;-6.57;62.02
61113;BME280;47184;57.998;56.184;2023-02-13T05:20:10;100267.25;;;-6.30;61.89
61113;BME280;47184;57.998;56.184;2023-02-13T05:22:36;100258.56;;;-6.54;62.61
61113;BME280;47184;57.998;56.184;2023-02-13T05:25:21;100265.59;;;-6.31;62.12
61113;BME280;47184;57.998;56.184;2023-02-13T05:27:47;100267.63;;;-6.14;61.70
61113;BME280;47184;57.998;56.184;2023-02-13T05:30:13;100270.19;;;-5.89;61.09
61113;BME280;47184;57.998;56.184;2023-02-13T05:32:39;100249.78;;;-6.19;61.45
61113;BME280;47184;57.998;56.184;2023-02-13T05:35:07;100243.94;;;-5.97;61.09
61113;BME280;47184;57.998;56.184;2023-02-13T05:37:33;100252.13;;;-5.86;60.87
61113;BME280;47184;57.998;56.184;2023-02-13T05:39:59;100250.66;;;-5.68;60.49
61113;BME280;47184;57.998;56.184;2023-02-13T05:42:25;100255.69;;;-5.65;60.48
61113;BME280;47184;57.998;56.184;2023-02-13T05:44:51;100235.84;;;-5.62;60.34
61113;BME280;47184;57.998;56.184;2023-02-13T05:47:17;100252.13;;;-5.61;60.27
61113;BME280;47184;57.998;56.184;2023-02-13T05:49:43;100248.38;;;-5.53;60.03
61113;BME280;47184;57.998;56.184;2023-02-13T05:52:09;100249.38;;;-5.32;59.73
61113;BME280;47184;57.998;56.184;2023-02-13T05:54:35;100246.03;;;-5.34;59.45
61113;BME280;47184;57.998;56.184;2023-02-13T05:57:03;100243.72;;;-5.41;59.43
61113;BME280;47184;57.998;56.184;2023-02-13T05:59:29;100246.22;;;-5.40;59.43
61113;BME280;47184;57.998;56.184;2023-02-13T06:01:55;100237.66;;;-5.40;59.12
61113;BME280;47184;57.998;56.184;2023-02-13T06:04:21;100218.06;;;-5.43;59.16
61113;BME280;47184;57.998;56.184;2023-02-13T06:06:47;100223.56;;;-5.54;59.23
61113;BME280;47184;57.998;56.184;2023-02-13T06:09:13;100238.41;;;-5.37;59.13
61113;BME280;47184;57.998;56.184;2023-02-13T06:11:39;100249.38;;;-5.32;58.84
61113;BME280;47184;57.998;56.184;2023-02-13T06:14:05;100234.84;;;-5.58;59.38
61113;BME280;47184;57.998;56.184;2023-02-13T06:16:31;100243.38;;;-5.32;58.96
61113;BME280;47184;57.998;56.184;2023-02-13T06:18:57;100232.63;;;-5.18;58.91
61113;BME280;47184;57.998;56.184;2023-02-13T06:21:23;100223.75;;;-5.60;59.06
61113;BME280;47184;57.998;56.184;2023-02-13T06:23:49;100234.19;;;-5.14;58.68
61113;BME280;47184;57.998;56.184;2023-02-13T06:26:15;100221.63;;;-5.24;58.53
61113;BME280;47184;57.998;56.184;2023-02-13T06:28:42;100222.25;;;-5.17;57.82
61113;BME280;47184;57.998;56.184;2023-02-13T06:31:08;100228.53;;;-4.79;57.90
61113;BME280;47184;57.998;56.184;2023-02-13T06:33:34;100236.13;;;-5.21;57.86
61113;BME280;47184;57.998;56.184;2023-02-13T06:36:00;100241.56;;;-5.05;58.06
61113;BME280;47184;57.998;56.184;2023-02-13T06:38:26;100235.13;;;-5.17;58.58
61113;BME280;47184;57.998;56.184;2023-02-13T06:40:52;100239.91;;;-5.31;58.54
61113;BME280;47184;57.998;56.184;2023-02-13T06:43:18;100243.88;;;-5.71;59.15
61113;BME280;47184;57.998;56.184;2023-02-13T06:45:44;100230.78;;;-5.40;59.09
61113;BME280;47184;57.998;56.184;2023-02-13T06:48:11;100235.44;;;-5.03;58.47
61113;BME280;47184;57.998;56.184;2023-02-13T06:50:40;100235.97;;;-4.93;57.97
61113;BME280;47184;57.998;56.184;2023-02-13T06:53:06;100236.03;;;-5.18;58.61
61113;BME280;47184;57.998;56.184;2023-02-13T06:55:32;100239.72;;;-5.02;57.99
61113;BME280;47184;57.998;56.184;2023-02-13T06:57:58;100227.41;;;-5.17;58.50
61113;BME280;47184;57.998;56.184;2023-02-13T07:00:24;100224.19;;;-5.00;58.15
61113;BME280;47184;57.998;56.184;2023-02-13T07:02:51;100244.44;;;-4.91;58.19
61113;BME280;47184;57.998;56.184;2023-02-13T07:05:17;100245.38;;;-4.70;58.01
61113;BME280;47184;57.998;56.184;2023-02-13T07:07:46;100235.25;;;-4.75;58.10
61113;BME280;47184;57.998;56.184;2023-02-13T07:10:13;100224.56;;;-4.87;58.13
61113;BME280;47184;57.998;56.184;2023-02-13T07:12:39;100232.47;;;-4.92;58.32
61113;BME280;47184;57.998;56.184;2023-02-13T07:15:05;100225.22;;;-5.04;58.67
61113;BME280;47184;57.998;56.184;2023-02-13T07:17:32;100238.00;;;-5.03;59.16
61113;BME280;47184;57.998;56.184;2023-02-13T07:19:59;100239.16;;;-5.10;59.03
61113;BME280;47184;57.998;56.184;2023-02-13T07:22:25;100239.19;;;-5.11;59.08
61113;BME280;47184;57.998;56.184;2023-02-13T07:24:51;100237.91;;;-5.23;58.76
61113;BME280;47184;57.998;56.184;2023-02-13T07:27:17;100229.97;;;-4.93;58.61
61113;BME280;47184;57.998;56.184;2023-02-13T07:29:46;100234.94;;;-4.89;58.56
61113;BME280;47184;57.998;56.184;2023-02-13T07:32:12;100233.47;;;-5.19;58.91
61113;BME280;47184;57.998;56.184;2023-02-13T07:34:38;100217.00;;;-5.14;58.81
61113;BME280;47184;57.998;56.184;2023-02-13T07:37:04;100225.09;;;-5.01;58.77
61113;BME280;47184;57.998;56.184;2023-02-13T07:39:30;100227.47;;;-4.73;58.61
61113;BME280;47184;57.998;56.184;2023-02-13T07:41:56;100233.25;;;-4.44;58.10
61113;BME280;47184;57.998;56.184;2023-02-13T07:44:25;100221.50;;;-4.52;57.95
61113;BME280;47184;57.998;56.184;2023-02-13T07:46:51;100222.78;;;-4.41;57.71
61113;BME280;47184;57.998;56.184;2023-02-13T07:49:17;100225.22;;;-4.37;57.71
61113;BME280;47184;57.998;56.184;2023-02-13T07:51:43;100215.25;;;-4.24;57.60
61113;BME280;47184;57.998;56.184;2023-02-13T07:54:09;100223.78;;;-4.44;56.88
61113;BME280;47184;57.998;56.184;2023-02-13T07:56:34;100220.47;;;-4.47;57.05
61113;BME280;47184;57.998;56.184;2023-02-13T07:59:00;100217.81;;;-4.90;57.26
61113;BME280;47184;57.998;56.184;2023-02-13T08:01:26;100203.03;;;-4.85;57.25
61113;BME280;47184;57.998;56.184;2023-02-13T08:03:52;100185.72;;;-4.81;57.60
61113;BME280;47184;57.998;56.184;2023-02-13T08:06:19;100197.03;;;-4.63;57.32
61113;BME280;47184;57.998;56.184;2023-02-13T08:08:45;100199.44;;;-4.59;57.47
61113;BME280;47184;57.998;56.184;2023-02-13T08:11:31;100181.16;;;-4.53;57.19
61113;BME280;47184;57.998;56.184;2023-02-13T08:14:16;100195.06;;;-4.57;57.40
61113;BME280;47184;57.998;56.184;2023-02-13T08:16:42;100193.19;;;-4.75;57.21
61113;BME280;47184;57.998;56.184;2023-02-13T08:19:08;100189.41;;;-4.22;56.87
61113;BME280;47184;57.998;56.184;2023-02-13T08:21:35;100194.50;;;-4.01;56.16
61113;BME280;47184;57.998;56.184;2023-02-13T08:24:04;100196.38;;;-4.25;55.48
61113;BME280;47184;57.998;56.184;2023-02-13T08:26:30;100189.00;;;-4.34;55.80
61113;BME280;47184;57.998;56.184;2023-02-13T08:28:57;100183.41;;;-4.03;55.35
61113;BME280;47184;57.998;56.184;2023-02-13T08:31:23;100180.84;;;-3.82;55.01
61113;BME280;47184;57.998;56.184;2023-02-13T08:33:50;100181.28;;;-3.72;54.98
61113;BME280;47184;57.998;56.184;2023-02-13T08:36:16;100167.09;;;-3.62;54.20
61113;BME280;47184;57.998;56.184;2023-02-13T08:38:45;100168.84;;;-3.44;54.31
61113;BME280;47184;57.998;56.184;2023-02-13T08:41:12;100170.31;;;-3.19;54.38
61113;BME280;47184;57.998;56.184;2023-02-13T08:43:38;100173.25;;;-3.08;54.35
61113;BME280;47184;57.998;56.184;2023-02-13T08:46:04;100169.84;;;-3.09;53.12
61113;BME280;47184;57.998;56.184;2023-02-13T08:48:31;100160.34;;;-3.08;52.90
61113;BME280;47184;57.998;56.184;2023-02-13T08:50:57;100161.41;;;-2.93;53.35
61113;BME280;47184;57.998;56.184;2023-02-13T08:53:23;100160.06;;;-2.83;52.90
61113;BME280;47184;57.998;56.184;2023-02-13T08:55:56;100161.44;;;-2.95;52.55
61113;BME280;47184;57.998;56.184;2023-02-13T08:58:22;100152.31;;;-2.83;52.86
61113;BME280;47184;57.998;56.184;2023-02-13T09:00:48;100149.16;;;-2.54;52.67
61113;BME280;47184;57.998;56.184;2023-02-13T09:03:15;100144.78;;;-2.34;52.40
61113;BME280;47184;57.998;56.184;2023-02-13T09:05:41;100136.91;;;-2.50;51.78
61113;BME280;47184;57.998;56.184;2023-02-13T09:08:08;100135.41;;;-2.54;51.46
61113;BME280;47184;57.998;56.184;2023-02-13T09:10:36;100133.81;;;-2.57;51.35
61113;BME280;47184;57.998;56.184;2023-02-13T09:13:04;100125.13;;;-2.73;51.21
61113;BME280;47184;57.998;56.184;2023-02-13T09:15:31;100130.28;;;-2.73;51.42
61113;BME280;47184;57.998;56.184;2023-02-13T09:17:57;100122.44;;;-3.08;51.50
61113;BME280;47184;57.998;56.184;2023-02-13T09:20:23;100124.91;;;-3.42;52.90
61113;BME280;47184;57.998;56.184;2023-02-13T09:22:49;100123.22;;;-3.62;53.42
61113;BME280;47184;57.998;56.184;2023-02-13T09:25:15;100128.59;;;-3.67;53.77
61113;BME280;47184;57.998;56.184;2023-02-13T09:27:42;100123.06;;;-3.78;54.70
61113;BME280;47184;57.998;56.184;2023-02-13T09:30:08;100128.22;;;-3.78;55.13
61113;BME280;47184;57.998;56.184;2023-02-13T09:32:35;100137.16;;;-3.66;54.93
61113;BME280;47184;57.998;56.184;2023-02-13T09:35:03;100129.34;;;-3.65;55.13
61113;BME280;47184;57.998;56.184;2023-02-13T09:37:31;100129.84;;;-3.57;55.47
61113;BME280;47184;57.998;56.184;2023-02-13T09:39:57;100124.63;;;-3.55;55.18
61113;BME280;47184;57.998;56.184;2023-02-13T09:42:26;100114.28;;;-3.74;55.71
61113;BME280;47184;57.998;56.184;2023-02-13T09:44:58;100112.22;;;-3.86;55.91
61113;BME280;47184;57.998;56.184;2023-02-13T09:47:35;100110.06;;;-3.95;56.08
61113;BME280;47184;57.998;56.184;2023-02-13T09:52:42;100124.22;;;-4.26;56.73
61113;BME280;47184;57.998;56.184;2023-02-13T09:55:15;100116.69;;;-4.31;56.64
61113;BME280;47184;57.998;56.184;2023-02-13T10:00:41;100116.19;;;-4.39;56.94
61113;BME280;47184;57.998;56.184;2023-02-13T10:03:23;100113.78;;;-4.43;57.15
61113;BME280;47184;57.998;56.184;2023-02-13T10:14:16;100102.06;;;-4.93;58.37
61113;BME280;47184;57.998;56.184;2023-02-13T10:19:44;100098.69;;;-5.17;59.09
61113;BME280;47184;57.998;56.184;2023-02-13T10:22:27;100085.81;;;-5.39;59.79
61113;BME280;47184;57.998;56.184;2023-02-13T10:24:58;100093.16;;;-5.06;59.15
61113;BME280;47184;57.998;56.184;2023-02-13T10:27:33;100109.59;;;-5.10;59.74
61113;BME280;47184;57.998;56.184;2023-02-13T10:35:26;100099.09;;;-4.84;59.61
61113;BME280;47184;57.998;56.184;2023-02-13T10:37:55;100098.50;;;-4.68;59.71
61113;BME280;47184;57.998;56.184;2023-02-13T10:40:37;100113.66;;;-4.61;59.98
61113;BME280;47184;57.998;56.184;2023-02-13T10:43:09;100090.66;;;-4.87;60.52
61113;BME280;47184;57.998;56.184;2023-02-13T10:48:39;100097.03;;;-4.96;61.81
61113;BME280;47184;57.998;56.184;2023-02-13T10:51:33;100101.56;;;-4.81;61.86
61113;BME280;47184;57.998;56.184;2023-02-13T10:54:33;100107.38;;;-4.97;62.83
61113;BME280;47184;57.998;56.184;2023-02-13T11:02:44;100097.13;;;-4.77;62.40
61113;BME280;47184;57.998;56.184;2023-02-13T11:05:19;100094.69;;;-4.80;62.61
61113;BME280;47184;57.998;56.184;2023-02-13T11:07:47;100094.69;;;-4.80;62.67
61113;BME280;47184;57.998;56.184;2023-02-13T11:10:24;100096.31;;;-4.78;62.83
61113;BME280;47184;57.998;56.184;2023-02-13T11:12:51;100099.75;;;-4.79;62.83
61113;BME280;47184;57.998;56.184;2023-02-13T11:15:27;100097.13;;;-4.77;63.04
61113;BME280;47184;57.998;56.184;2023-02-13T11:17:57;100084.41;;;-4.60;62.81
61113;BME280;47184;57.998;56.184;2023-02-13T11:20:29;100089.56;;;-4.39;62.81
61113;BME280;47184;57.998;56.184;2023-02-13T11:23:24;100082.94;;;-4.45;62.85
61113;BME280;47184;57.998;56.184;2023-02-13T11:26:04;100080.09;;;-4.39;62.70
61113;BME280;47184;57.998;56.184;2023-02-13T11:28:37;100073.16;;;-4.37;62.86
61113;BME280;47184;57.998;56.184;2023-02-13T11:31:11;100071.75;;;-4.66;63.25
61113;BME280;47184;57.998;56.184;2023-02-13T11:33:38;100065.56;;;-4.82;63.36
61113;BME280;47184;57.998;56.184;2023-02-13T11:36:15;100050.78;;;-4.99;63.47
61113;BME280;47184;57.998;56.184;2023-02-13T11:38:42;100051.94;;;-5.06;63.95
61113;BME280;47184;57.998;56.184;2023-02-13T11:41:21;100059.19;;;-4.94;63.59
61113;BME280;47184;57.998;56.184;2023-02-13T11:44:01;100059.44;;;-4.80;63.72
61113;BME280;47184;57.998;56.184;2023-02-13T11:46:41;100066.72;;;-4.89;63.57
61113;BME280;47184;57.998;56.184;2023-02-13T11:49:20;100071.16;;;-5.15;63.59
61113;BME280;47184;57.998;56.184;2023-02-13T11:51:49;100069.28;;;-5.11;63.46
61113;BME280;47184;57.998;56.184;2023-02-13T11:57:18;100076.13;;;-5.32;63.33
61113;BME280;47184;57.998;56.184;2023-02-13T11:59:47;100057.44;;;-5.37;63.26
61113;BME280;47184;57.998;56.184;2023-02-13T12:04:41;100053.97;;;-5.58;63.47
61113;BME280;47184;57.998;56.184;2023-02-13T12:07:29;100080.34;;;-5.53;63.39
61113;BME280;47184;57.998;56.184;2023-02-13T12:10:02;100061.28;;;-5.71;63.57
61113;BME280;47184;57.998;56.184;2023-02-13T12:12:47;100057.91;;;-5.50;63.22
61113;BME280;47184;57.998;56.184;2023-02-13T12:15:31;100051.03;;;-5.49;63.32
61113;BME280;47184;57.998;56.184;2023-02-13T12:18:30;100056.25;;;-5.51;63.34
61113;BME280;47184;57.998;56.184;2023-02-13T12:26:09;100057.06;;;-5.50;63.88
61113;BME280;47184;57.998;56.184;2023-02-13T12:31:59;100056.25;;;-5.51;63.67
61113;BME280;47184;57.998;56.184;2023-02-13T12:59:17;100064.06;;;-5.99;63.11
61113;BME280;47184;57.998;56.184;2023-02-13T13:07:35;100053.91;;;-6.27;62.73
61113;BME280;47184;57.998;56.184;2023-02-13T13:16:16;100042.88;;;-6.06;62.06
61113;BME280;47184;57.998;56.184;2023-02-13T13:24:46;100037.44;;;-5.98;61.74
61113;BME280;47184;57.998;56.184;2023-02-13T13:27:22;100030.75;;;-6.02;61.58
61113;BME280;47184;57.998;56.184;2023-02-13T13:29:59;100042.94;;;-5.85;61.48
61113;BME280;47184;57.998;56.184;2023-02-13T13:32:29;100043.66;;;-6.04;61.86
61113;BME280;47184;57.998;56.184;2023-02-13T13:34:57;100041.94;;;-6.03;61.75
61113;BME280;47184;57.998;56.184;2023-02-13T13:37:58;100033.81;;;-6.16;62.14
61113;BME280;47184;57.998;56.184;2023-02-13T13:40:53;100041.72;;;-6.22;62.46
61113;BME280;47184;57.998;56.184;2023-02-13T13:46:23;100034.09;;;-6.24;62.46
61113;BME280;47184;57.998;56.184;2023-02-13T13:49:29;100032.84;;;-6.13;61.80
61113;BME280;47184;57.998;56.184;2023-02-13T13:52:31;100037.66;;;-6.28;62.87
61113;BME280;47184;57.998;56.184;2023-02-13T13:55:02;100017.81;;;-6.47;63.17
61113;BME280;47184;57.998;56.184;2023-02-13T14:07:47;100030.53;;;-6.44;64.01
61113;BME280;47184;57.998;56.184;2023-02-13T14:12:58;100023.78;;;-6.47;63.87
61113;BME280;47184;57.998;56.184;2023-02-13T14:31:32;100020.41;;;-6.74;65.42
61113;BME280;47184;57.998;56.184;2023-02-13T14:34:19;100020.28;;;-6.69;65.08
61113;BME280;47184;57.998;56.184;2023-02-13T14:39:35;100020.41;;;-6.74;65.86
61113;BME280;47184;57.998;56.184;2023-02-13T14:42:03;100017.53;;;-6.65;65.48
61113;BME280;47184;57.998;56.184;2023-02-13T14:44:46;100015.06;;;-6.68;65.59
61113;BME280;47184;57.998;56.184;2023-02-13T14:47:42;100008.09;;;-6.89;65.38
61113;BME280;47184;57.998;56.184;2023-02-13T14:50:16;100026.66;;;-7.08;66.24
61113;BME280;47184;57.998;56.184;2023-02-13T14:52:45;100025.66;;;-6.77;65.35
61113;BME280;47184;57.998;56.184;2023-02-13T14:55:41;100023.78;;;-6.72;65.19
61113;BME280;47184;57.998;56.184;2023-02-13T14:58:15;100025.50;;;-6.99;66.04
61113;BME280;47184;57.998;56.184;2023-02-13T15:05:58;100015.16;;;-6.96;66.88
61113;BME280;47184;57.998;56.184;2023-02-13T15:08:33;100008.66;;;-7.06;66.39
61113;BME280;47184;57.998;56.184;2023-02-13T15:11:02;100005.69;;;-7.20;66.41
61113;BME280;47184;57.998;56.184;2023-02-13T15:13:33;100021.88;;;-6.92;66.35
61113;BME280;47184;57.998;56.184;2023-02-13T15:16:10;100020.63;;;-6.80;65.81
61113;BME280;47184;57.998;56.184;2023-02-13T15:18:44;100018.06;;;-6.80;65.52
61113;BME280;47184;57.998;56.184;2023-02-13T15:21:16;100017.31;;;-6.84;65.56
61113;BME280;47184;57.998;56.184;2023-02-13T15:23:44;100012.03;;;-6.79;65.57
61113;BME280;47184;57.998;56.184;2023-02-13T15:26:22;100005.22;;;-7.07;66.16
61113;BME280;47184;57.998;56.184;2023-02-13T15:29:02;100018.75;;;-7.02;66.46
61113;BME280;47184;57.998;56.184;2023-02-13T15:31:31;100024.19;;;-6.84;65.95
61113;BME280;47184;57.998;56.184;2023-02-13T15:34:02;100019.94;;;-6.85;66.10
61113;BME280;47184;57.998;56.184;2023-02-13T15:36:39;100019.38;;;-6.95;66.65
61113;BME280;47184;57.998;56.184;2023-02-13T15:39:06;100014.41;;;-7.00;66.72
61113;BME280;47184;57.998;56.184;2023-02-13T15:41:51;100012.84;;;-7.04;66.91
61113;BME280;47184;57.998;56.184;2023-02-13T15:44:23;100019.34;;;-6.93;67.28
61113;BME280;47184;57.998;56.184;2023-02-13T15:46:50;100002.75;;;-6.83;66.92
61113;BME280;47184;57.998;56.184;2023-02-13T15:49:21;100006.69;;;-6.73;66.93
61113;BME280;47184;57.998;56.184;2023-02-13T15:51:49;99982.59;;;-6.94;66.69